San Juan Capistrano, California
Current Conditions -  °F | °C
As of 4:53 PM on Monday 26 Jan 2015 (Local Time) from KSNA Reporting Station
Light Rain Light Rain  
Wind Chill: 62°   Ceiling: 8000
Heat Index: 62°   Visibility: 8mi
Dew Point: 52°   Wind: 9mph
Humidity: 70%   Direction: 60°ENE
Pressure: 30.05"   Gusts: NA
Location:  33.5°N, 117.66°W
Report Text: KSNA 270053Z 06008KT 8SM -RA OVC080 17/11 A3005 RMK AO2 SLP175 P0007 T01670111
Loading
Personal Weather Stations






























Interactive Weather Map New forecast layout! Learn more

10-Day Weather Forecast

Advertisements
Track Severe Weather on mobile